sensor_id;sensor_type;location;lat;lon;timestamp;pressure;altitude;pressure_sealevel;temperature
30001;BMP280;16845;48.670;9.000;2023-05-19T03:46:02;95918.09;;;10.93
30001;BMP280;16845;48.670;9.000;2023-05-19T03:48:28;95923.75;;;11.03
30001;BMP280;16845;48.670;9.000;2023-05-19T03:50:55;95917.31;;;10.93
30001;BMP280;16845;48.670;9.000;2023-05-19T03:53:21;95920.44;;;11.01
30001;BMP280;16845;48.670;9.000;2023-05-19T03:55:48;95917.78;;;11.07
30001;BMP280;16845;48.670;9.000;2023-05-19T03:58:15;95917.13;;;10.99
30001;BMP280;16845;48.670;9.000;2023-05-19T04:00:41;95933.16;;;10.95
30001;BMP280;16845;48.670;9.000;2023-05-19T04:03:09;95927.84;;;11.05
30001;BMP280;16845;48.670;9.000;2023-05-19T04:05:36;95925.22;;;11.11
30001;BMP280;16845;48.670;9.000;2023-05-19T04:08:03;95918.47;;;11.12
30001;BMP280;16845;48.670;9.000;2023-05-19T04:10:29;95925.22;;;11.11
30001;BMP280;16845;48.670;9.000;2023-05-19T04:12:56;95927.81;;;11.07
30001;BMP280;16845;48.670;9.000;2023-05-19T04:15:23;95923.19;;;10.92
30001;BMP280;16845;48.670;9.000;2023-05-19T04:17:49;95924.78;;;10.94
30001;BMP280;16845;48.670;9.000;2023-05-19T04:20:17;95925.59;;;10.96
30001;BMP280;16845;48.670;9.000;2023-05-19T04:22:44;95929.06;;;10.91
30001;BMP280;16845;48.670;9.000;2023-05-19T04:25:10;95930.56;;;10.98
30001;BMP280;16845;48.670;9.000;2023-05-19T04:27:37;95933.47;;;10.81
30001;BMP280;16845;48.670;9.000;2023-05-19T04:30:04;95934.03;;;10.92
30001;BMP280;16845;48.670;9.000;2023-05-19T04:32:31;95932.19;;;10.99
30001;BMP280;16845;48.670;9.000;2023-05-19T04:34:58;95933.25;;;10.90
30001;BMP280;16845;48.670;9.000;2023-05-19T04:37:26;95929.66;;;11.00
30001;BMP280;16845;48.670;9.000;2023-05-19T04:39:52;95930.16;;;11.13
30001;BMP280;16845;48.670;9.000;2023-05-19T04:42:19;95933.50;;;11.15
30001;BMP280;16845;48.670;9.000;2023-05-19T04:44:45;95931.91;;;11.11
30001;BMP280;16845;48.670;9.000;2023-05-19T04:47:12;95933.78;;;11.03
30001;BMP280;16845;48.670;9.000;2023-05-19T04:49:38;95930.03;;;11.19
30001;BMP280;16845;48.670;9.000;2023-05-19T04:52:06;95930.78;;;11.22
30001;BMP280;16845;48.670;9.000;2023-05-19T04:54:34;95927.78;;;11.40
30001;BMP280;16845;48.670;9.000;2023-05-19T04:57:01;95931.34;;;11.33
30001;BMP280;16845;48.670;9.000;2023-05-19T04:59:28;95934.06;;;11.26
30001;BMP280;16845;48.670;9.000;2023-05-19T05:01:54;95927.59;;;11.16
30001;BMP280;16845;48.670;9.000;2023-05-19T05:04:21;95921.09;;;11.41
30001;BMP280;16845;48.670;9.000;2023-05-19T05:06:48;95925.69;;;11.56
30001;BMP280;16845;48.670;9.000;2023-05-19T05:09:15;95934.97;;;11.22
30001;BMP280;16845;48.670;9.000;2023-05-19T05:11:43;95934.06;;;11.26
30001;BMP280;16845;48.670;9.000;2023-05-19T05:14:10;95938.75;;;11.38
30001;BMP280;16845;48.670;9.000;2023-05-19T05:16:37;95930.13;;;11.16
30001;BMP280;16845;48.670;9.000;2023-05-19T05:19:04;95929.97;;;11.52
30001;BMP280;16845;48.670;9.000;2023-05-19T05:21:31;95930.59;;;11.30
30001;BMP280;16845;48.670;9.000;2023-05-19T05:23:58;95931.28;;;11.03
30001;BMP280;16845;48.670;9.000;2023-05-19T05:26:29;95929.19;;;10.86
30001;BMP280;16845;48.670;9.000;2023-05-19T05:28:57;95930.91;;;11.16
30001;BMP280;16845;48.670;9.000;2023-05-19T05:31:24;95924.16;;;11.52
30001;BMP280;16845;48.670;9.000;2023-05-19T05:33:51;95927.72;;;11.43
30001;BMP280;16845;48.670;9.000;2023-05-19T05:36:17;95930.16;;;11.46
30001;BMP280;16845;48.670;9.000;2023-05-19T05:38:44;95930.63;;;11.62
30001;BMP280;16845;48.670;9.000;2023-05-19T05:41:10;95929.75;;;11.91
30001;BMP280;16845;48.670;9.000;2023-05-19T05:43:37;95937.84;;;12.02
30001;BMP280;16845;48.670;9.000;2023-05-19T05:46:04;95934.72;;;11.94
30001;BMP280;16845;48.670;9.000;2023-05-19T05:48:32;95933.09;;;11.93
30001;BMP280;16845;48.670;9.000;2023-05-19T05:50:59;95935.66;;;11.90
30001;BMP280;16845;48.670;9.000;2023-05-19T05:53:29;95944.41;;;11.77
30001;BMP280;16845;48.670;9.000;2023-05-19T05:55:56;95937.31;;;11.91
30001;BMP280;16845;48.670;9.000;2023-05-19T05:58:23;95944.00;;;12.21
30001;BMP280;16845;48.670;9.000;2023-05-19T06:00:50;95931.84;;;12.35
30001;BMP280;16845;48.670;9.000;2023-05-19T06:03:18;95938.78;;;12.82
30001;BMP280;16845;48.670;9.000;2023-05-19T06:05:45;95940.63;;;12.77
30001;BMP280;16845;48.670;9.000;2023-05-19T06:08:11;95931.91;;;12.87
30001;BMP280;16845;48.670;9.000;2023-05-19T06:10:38;95931.28;;;13.08
30001;BMP280;16845;48.670;9.000;2023-05-19T06:13:04;95935.47;;;13.08
30001;BMP280;16845;48.670;9.000;2023-05-19T06:15:31;95934.22;;;12.95
30001;BMP280;16845;48.670;9.000;2023-05-19T06:17:58;95926.50;;;13.01
30001;BMP280;16845;48.670;9.000;2023-05-19T06:20:26;95927.53;;;12.94
30001;BMP280;16845;48.670;9.000;2023-05-19T06:22:52;95925.28;;;12.85
30001;BMP280;16845;48.670;9.000;2023-05-19T06:25:19;95926.16;;;13.10
30001;BMP280;16845;48.670;9.000;2023-05-19T06:27:45;95921.59;;;12.96
30001;BMP280;16845;48.670;9.000;2023-05-19T06:30:12;95926.03;;;13.14
30001;BMP280;16845;48.670;9.000;2023-05-19T06:32:39;95923.06;;;13.52
30001;BMP280;16845;48.670;9.000;2023-05-19T06:35:06;95920.72;;;13.48
30001;BMP280;16845;48.670;9.000;2023-05-19T06:37:34;95913.78;;;13.28
30001;BMP280;16845;48.670;9.000;2023-05-19T06:40:01;95925.84;;;13.20
30001;BMP280;16845;48.670;9.000;2023-05-19T06:42:27;95917.75;;;13.35
30001;BMP280;16845;48.670;9.000;2023-05-19T06:44:54;95930.50;;;13.06
30001;BMP280;16845;48.670;9.000;2023-05-19T06:47:20;95923.06;;;13.28
30001;BMP280;16845;48.670;9.000;2023-05-19T06:49:47;95914.63;;;13.29
30001;BMP280;16845;48.670;9.000;2023-05-19T06:52:13;95919.06;;;13.47
30001;BMP280;16845;48.670;9.000;2023-05-19T06:54:41;95912.34;;;13.70
30001;BMP280;16845;48.670;9.000;2023-05-19T06:57:08;95916.78;;;14.09
30001;BMP280;16845;48.670;9.000;2023-05-19T06:59:34;95917.72;;;14.30
30001;BMP280;16845;48.670;9.000;2023-05-19T07:02:01;95922.22;;;14.66
30001;BMP280;16845;48.670;9.000;2023-05-19T07:04:28;95915.91;;;14.78
30001;BMP280;16845;48.670;9.000;2023-05-19T07:06:54;95916.75;;;14.98
30001;BMP280;16845;48.670;9.000;2023-05-19T07:09:21;95913.84;;;15.49
30001;BMP280;16845;48.670;9.000;2023-05-19T07:11:48;95917.91;;;15.33
30001;BMP280;16845;48.670;9.000;2023-05-19T07:14:15;95924.34;;;14.98
30001;BMP280;16845;48.670;9.000;2023-05-19T07:16:42;95923.88;;;14.89
30001;BMP280;16845;48.670;9.000;2023-05-19T07:19:08;95913.81;;;14.87
30001;BMP280;16845;48.670;9.000;2023-05-19T07:21:35;95913.41;;;14.33
30001;BMP280;16845;48.670;9.000;2023-05-19T07:24:01;95914.53;;;14.48
30001;BMP280;16845;48.670;9.000;2023-05-19T07:26:28;95908.44;;;14.53
30001;BMP280;16845;48.670;9.000;2023-05-19T07:28:56;95914.13;;;14.37
30001;BMP280;16845;48.670;9.000;2023-05-19T07:31:22;95915.72;;;13.94
30001;BMP280;16845;48.670;9.000;2023-05-19T07:33:49;95920.69;;;13.95
30001;BMP280;16845;48.670;9.000;2023-05-19T07:36:19;95911.34;;;13.51
30001;BMP280;16845;48.670;9.000;2023-05-19T07:38:46;95922.84;;;13.58
30001;BMP280;16845;48.670;9.000;2023-05-19T07:41:12;95914.06;;;13.70
30001;BMP280;16845;48.670;9.000;2023-05-19T07:43:39;95916.03;;;13.85
30001;BMP280;16845;48.670;9.000;2023-05-19T07:46:07;95914.34;;;14.08
30001;BMP280;16845;48.670;9.000;2023-05-19T07:48:34;95915.75;;;13.92
30001;BMP280;16845;48.670;9.000;2023-05-19T07:51:01;95914.78;;;14.19
30001;BMP280;16845;48.670;9.000;2023-05-19T07:53:27;95911.13;;;14.27
30001;BMP280;16845;48.670;9.000;2023-05-19T07:55:54;95908.84;;;14.64
30001;BMP280;16845;48.670;9.000;2023-05-19T07:58:23;95905.75;;;14.58
30001;BMP280;16845;48.670;9.000;2023-05-19T08:00:49;95913.22;;;14.38
30001;BMP280;16845;48.670;9.000;2023-05-19T08:03:17;95901.50;;;14.37
30001;BMP280;16845;48.670;9.000;2023-05-19T08:05:44;95901.28;;;14.64
30001;BMP280;16845;48.670;9.000;2023-05-19T08:08:10;95901.25;;;14.86
30001;BMP280;16845;48.670;9.000;2023-05-19T08:10:37;95899.97;;;14.76
30001;BMP280;16845;48.670;9.000;2023-05-19T08:13:03;95902.88;;;14.67
30001;BMP280;16845;48.670;9.000;2023-05-19T08:15:30;95898.28;;;14.55
30001;BMP280;16845;48.670;9.000;2023-05-19T08:17:57;95898.16;;;14.36
30001;BMP280;16845;48.670;9.000;2023-05-19T08:20:25;95899.34;;;14.49
30001;BMP280;16845;48.670;9.000;2023-05-19T08:22:51;95895.91;;;14.29
30001;BMP280;16845;48.670;9.000;2023-05-19T08:25:18;95898.16;;;14.58
30001;BMP280;16845;48.670;9.000;2023-05-19T08:27:44;95893.13;;;14.58
30001;BMP280;16845;48.670;9.000;2023-05-19T08:30:11;95891.28;;;14.40
30001;BMP280;16845;48.670;9.000;2023-05-19T08:32:38;95886.00;;;14.67
30001;BMP280;16845;48.670;9.000;2023-05-19T08:35:06;95890.66;;;14.35
30001;BMP280;16845;48.670;9.000;2023-05-19T08:37:34;95884.47;;;14.63
30001;BMP280;16845;48.670;9.000;2023-05-19T08:40:00;95888.00;;;14.38
30001;BMP280;16845;48.670;9.000;2023-05-19T08:42:27;95888.47;;;14.26
30001;BMP280;16845;48.670;9.000;2023-05-19T08:44:53;95881.97;;;14.42
30001;BMP280;16845;48.670;9.000;2023-05-19T08:47:20;95881.59;;;14.72
30001;BMP280;16845;48.670;9.000;2023-05-19T08:49:51;95881.47;;;14.75
30001;BMP280;16845;48.670;9.000;2023-05-19T08:52:24;95877.41;;;14.93
30001;BMP280;16845;48.670;9.000;2023-05-19T08:54:59;95876.84;;;15.06
30001;BMP280;16845;48.670;9.000;2023-05-19T08:57:26;95886.50;;;14.97
30001;BMP280;16845;48.670;9.000;2023-05-19T08:59:54;95882.38;;;14.74
30001;BMP280;16845;48.670;9.000;2023-05-19T09:02:21;95876.78;;;14.66
30001;BMP280;16845;48.670;9.000;2023-05-19T09:04:48;95875.31;;;14.82
30001;BMP280;16845;48.670;9.000;2023-05-19T09:07:15;95873.69;;;14.60
30001;BMP280;16845;48.670;9.000;2023-05-19T09:09:42;95874.59;;;14.57
30001;BMP280;16845;48.670;9.000;2023-05-19T09:12:12;95869.91;;;14.70
30001;BMP280;16845;48.670;9.000;2023-05-19T09:14:39;95874.38;;;14.63
30001;BMP280;16845;48.670;9.000;2023-05-19T09:17:06;95872.44;;;14.70
30001;BMP280;16845;48.670;9.000;2023-05-19T09:19:33;95863.53;;;15.23
30001;BMP280;16845;48.670;9.000;2023-05-19T09:22:01;95879.75;;;14.56
30001;BMP280;16845;48.670;9.000;2023-05-19T09:24:28;95872.22;;;14.54
30001;BMP280;16845;48.670;9.000;2023-05-19T09:26:56;95872.50;;;14.47
30001;BMP280;16845;48.670;9.000;2023-05-19T09:29:27;95870.88;;;14.46
30001;BMP280;16845;48.670;9.000;2023-05-19T09:31:55;95875.81;;;14.70
30001;BMP280;16845;48.670;9.000;2023-05-19T09:34:21;95873.03;;;14.33
30001;BMP280;16845;48.670;9.000;2023-05-19T09:36:49;95880.38;;;14.61
30001;BMP280;16845;48.670;9.000;2023-05-19T09:39:16;95867.47;;;14.47
30001;BMP280;16845;48.670;9.000;2023-05-19T09:41:45;95865.81;;;14.46
30001;BMP280;16845;48.670;9.000;2023-05-19T09:44:21;95873.97;;;14.31
30001;BMP280;16845;48.670;9.000;2023-05-19T09:46:50;95869.91;;;14.27
30001;BMP280;16845;48.670;9.000;2023-05-19T09:49:19;95868.53;;;14.20
30001;BMP280;16845;48.670;9.000;2023-05-19T09:51:53;95870.63;;;14.30
30001;BMP280;16845;48.670;9.000;2023-05-19T09:54:22;95859.13;;;14.45
30001;BMP280;16845;48.670;9.000;2023-05-19T09:56:50;95860.66;;;14.49
30001;BMP280;16845;48.670;9.000;2023-05-19T09:59:18;95864.63;;;14.54
30001;BMP280;16845;48.670;9.000;2023-05-19T10:01:45;95865.13;;;14.21
30001;BMP280;16845;48.670;9.000;2023-05-19T10:04:16;95867.47;;;14.25
30001;BMP280;16845;48.670;9.000;2023-05-19T10:06:44;95869.69;;;14.33
30001;BMP280;16845;48.670;9.000;2023-05-19T10:09:11;95863.72;;;14.57
30001;BMP280;16845;48.670;9.000;2023-05-19T10:11:41;95867.94;;;14.12
30001;BMP280;16845;48.670;9.000;2023-05-19T10:14:08;95863.59;;;14.15
30001;BMP280;16845;48.670;9.000;2023-05-19T10:16:35;95869.16;;;14.25
30001;BMP280;16845;48.670;9.000;2023-05-19T10:19:02;95866.50;;;14.05
30001;BMP280;16845;48.670;9.000;2023-05-19T10:21:31;95865.88;;;14.00
30001;BMP280;16845;48.670;9.000;2023-05-19T10:23:57;95874.75;;;13.87
30001;BMP280;16845;48.670;9.000;2023-05-19T10:26:24;95873.00;;;13.89
30001;BMP280;16845;48.670;9.000;2023-05-19T10:28:51;95861.38;;;13.85
30001;BMP280;16845;48.670;9.000;2023-05-19T10:31:20;95855.97;;;13.73
30001;BMP280;16845;48.670;9.000;2023-05-19T10:34:02;95860.31;;;13.91
30001;BMP280;16845;48.670;9.000;2023-05-19T10:36:41;95867.63;;;13.98
30001;BMP280;16845;48.670;9.000;2023-05-19T10:39:11;95864.06;;;14.04
30001;BMP280;16845;48.670;9.000;2023-05-19T10:41:46;95865.09;;;13.98
30001;BMP280;16845;48.670;9.000;2023-05-19T10:44:22;95859.06;;;14.02
30001;BMP280;16845;48.670;9.000;2023-05-19T10:46:53;95867.81;;;14.15
30001;BMP280;16845;48.670;9.000;2023-05-19T10:49:22;95861.38;;;14.08
30001;BMP280;16845;48.670;9.000;2023-05-19T10:51:54;95855.03;;;14.21
30001;BMP280;16845;48.670;9.000;2023-05-19T10:54:38;95859.19;;;14.22
30001;BMP280;16845;48.670;9.000;2023-05-19T10:57:05;95865.56;;;14.30
30001;BMP280;16845;48.670;9.000;2023-05-19T10:59:33;95865.72;;;14.05
30001;BMP280;16845;48.670;9.000;2023-05-19T11:02:02;95861.03;;;13.94
30001;BMP280;16845;48.670;9.000;2023-05-19T11:04:38;95864.28;;;14.20
30001;BMP280;16845;48.670;9.000;2023-05-19T11:07:07;95870.50;;;14.10
30001;BMP280;16845;48.670;9.000;2023-05-19T11:09:39;95864.47;;;14.37
30001;BMP280;16845;48.670;9.000;2023-05-19T11:12:07;95868.41;;;14.23
30001;BMP280;16845;48.670;9.000;2023-05-19T11:14:33;95863.28;;;14.46
30001;BMP280;16845;48.670;9.000;2023-05-19T11:17:00;95865.88;;;14.23
30001;BMP280;16845;48.670;9.000;2023-05-19T11:19:28;95870.47;;;14.12
30001;BMP280;16845;48.670;9.000;2023-05-19T11:21:55;95868.94;;;14.31
30001;BMP280;16845;48.670;9.000;2023-05-19T11:24:34;95863.63;;;14.37
30001;BMP280;16845;48.670;9.000;2023-05-19T11:27:19;95871.69;;;14.02
30001;BMP280;16845;48.670;9.000;2023-05-19T11:29:46;95860.72;;;14.03
30001;BMP280;16845;48.670;9.000;2023-05-19T11:32:13;95865.78;;;14.24
30001;BMP280;16845;48.670;9.000;2023-05-19T11:34:40;95869.16;;;14.25
30001;BMP280;16845;48.670;9.000;2023-05-19T11:37:07;95859.19;;;13.99
30001;BMP280;16845;48.670;9.000;2023-05-19T11:39:35;95865.16;;;13.97
30001;BMP280;16845;48.670;9.000;2023-05-19T11:42:02;95858.19;;;14.03
30001;BMP280;16845;48.670;9.000;2023-05-19T11:44:29;95854.91;;;14.24
30001;BMP280;16845;48.670;9.000;2023-05-19T11:46:56;95847.00;;;14.53
30001;BMP280;16845;48.670;9.000;2023-05-19T11:49:23;95846.09;;;14.34
30001;BMP280;16845;48.670;9.000;2023-05-19T11:51:51;95850.09;;;14.39
30001;BMP280;16845;48.670;9.000;2023-05-19T11:54:17;95856.53;;;14.25
30001;BMP280;16845;48.670;9.000;2023-05-19T11:56:46;95854.22;;;14.42
30001;BMP280;16845;48.670;9.000;2023-05-19T11:59:12;95848.78;;;14.29
30001;BMP280;16845;48.670;9.000;2023-05-19T12:01:39;95853.19;;;14.24
30001;BMP280;16845;48.670;9.000;2023-05-19T12:04:07;95846.34;;;14.05
30001;BMP280;16845;48.670;9.000;2023-05-19T12:06:33;95848.03;;;14.05
30001;BMP280;16845;48.670;9.000;2023-05-19T12:09:00;95842.56;;;14.38
30001;BMP280;16845;48.670;9.000;2023-05-19T12:11:27;95848.34;;;14.20
30001;BMP280;16845;48.670;9.000;2023-05-19T12:13:57;95855.59;;;14.27
30001;BMP280;16845;48.670;9.000;2023-05-19T12:16:31;95857.47;;;14.22
30001;BMP280;16845;48.670;9.000;2023-05-19T12:18:59;95858.06;;;14.29
30001;BMP280;16845;48.670;9.000;2023-05-19T12:21:25;95856.84;;;14.16
30001;BMP280;16845;48.670;9.000;2023-05-19T12:24:00;95867.50;;;14.01
30001;BMP280;16845;48.670;9.000;2023-05-19T12:26:27;95865.63;;;14.06
30001;BMP280;16845;48.670;9.000;2023-05-19T12:28:53;95856.22;;;14.11
30001;BMP280;16845;48.670;9.000;2023-05-19T12:31:21;95864.09;;;14.25
30001;BMP280;16845;48.670;9.000;2023-05-19T12:33:48;95857.72;;;14.59
30001;BMP280;16845;48.670;9.000;2023-05-19T12:36:15;95858.75;;;14.75
30001;BMP280;16845;48.670;9.000;2023-05-19T12:38:41;95855.25;;;14.58
30001;BMP280;16845;48.670;9.000;2023-05-19T12:41:10;95863.97;;;14.28
30001;BMP280;16845;48.670;9.000;2023-05-19T12:43:36;95870.97;;;14.21
30001;BMP280;16845;48.670;9.000;2023-05-19T12:46:08;95863.56;;;13.94
30001;BMP280;16845;48.670;9.000;2023-05-19T12:48:40;95865.56;;;13.86
30001;BMP280;16845;48.670;9.000;2023-05-19T12:51:06;95870.69;;;13.60
30001;BMP280;16845;48.670;9.000;2023-05-19T12:53:33;95867.28;;;13.84
30001;BMP280;16845;48.670;9.000;2023-05-19T12:55:59;95868.28;;;13.80
30001;BMP280;16845;48.670;9.000;2023-05-19T12:58:26;95869.13;;;13.81
30001;BMP280;16845;48.670;9.000;2023-05-19T13:00:58;95875.13;;;14.00
30001;BMP280;16845;48.670;9.000;2023-05-19T13:03:25;95866.78;;;13.98
30001;BMP280;16845;48.670;9.000;2023-05-19T13:05:53;95864.56;;;13.67
30001;BMP280;16845;48.670;9.000;2023-05-19T13:08:20;95868.06;;;13.86
30001;BMP280;16845;48.670;9.000;2023-05-19T13:10:47;95853.41;;;13.74
30001;BMP280;16845;48.670;9.000;2023-05-19T13:13:14;95857.53;;;13.98
30001;BMP280;16845;48.670;9.000;2023-05-19T13:15:42;95850.34;;;13.88
30001;BMP280;16845;48.670;9.000;2023-05-19T13:18:10;95852.41;;;13.78
30001;BMP280;16845;48.670;9.000;2023-05-19T13:20:38;95850.03;;;13.97
30001;BMP280;16845;48.670;9.000;2023-05-19T13:23:09;95850.41;;;14.09
30001;BMP280;16845;48.670;9.000;2023-05-19T13:25:36;95851.09;;;14.12
30001;BMP280;16845;48.670;9.000;2023-05-19T13:28:03;95850.06;;;14.18
30001;BMP280;16845;48.670;9.000;2023-05-19T13:30:30;95843.03;;;14.26
30001;BMP280;16845;48.670;9.000;2023-05-19T13:32:56;95839.16;;;14.39
30001;BMP280;16845;48.670;9.000;2023-05-19T13:35:23;95838.56;;;14.32
30001;BMP280;16845;48.670;9.000;2023-05-19T13:37:49;95842.75;;;14.75
30001;BMP280;16845;48.670;9.000;2023-05-19T13:40:17;95834.78;;;14.64
30001;BMP280;16845;48.670;9.000;2023-05-19T13:42:44;95831.78;;;14.56
30001;BMP280;16845;48.670;9.000;2023-05-19T13:45:11;95831.13;;;14.29
30001;BMP280;16845;48.670;9.000;2023-05-19T13:47:37;95829.09;;;14.16
30001;BMP280;16845;48.670;9.000;2023-05-19T13:50:05;95833.00;;;14.02
30001;BMP280;16845;48.670;9.000;2023-05-19T13:52:32;95838.88;;;14.02
30001;BMP280;16845;48.670;9.000;2023-05-19T13:54:58;95828.63;;;14.07
30001;BMP280;16845;48.670;9.000;2023-05-19T13:57:26;95834.38;;;14.10
30001;BMP280;16845;48.670;9.000;2023-05-19T13:59:53;95826.59;;;13.93
30001;BMP280;16845;48.670;9.000;2023-05-19T14:02:28;95822.28;;;13.97
30001;BMP280;16845;48.670;9.000;2023-05-19T14:04:55;95825.22;;;13.86
30001;BMP280;16845;48.670;9.000;2023-05-19T14:07:21;95822.69;;;13.86
30001;BMP280;16845;48.670;9.000;2023-05-19T14:09:48;95826.09;;;14.07
30001;BMP280;16845;48.670;9.000;2023-05-19T14:12:15;95823.91;;;14.42
30001;BMP280;16845;48.670;9.000;2023-05-19T14:14:43;95819.84;;;14.38
30001;BMP280;16845;48.670;9.000;2023-05-19T14:17:10;95814.75;;;14.39
30001;BMP280;16845;48.670;9.000;2023-05-19T14:19:36;95811.06;;;14.26
30001;BMP280;16845;48.670;9.000;2023-05-19T14:22:03;95814.69;;;14.19
30001;BMP280;16845;48.670;9.000;2023-05-19T14:24:30;95814.56;;;14.22
30001;BMP280;16845;48.670;9.000;2023-05-19T14:26:57;95814.53;;;14.24
30001;BMP280;16845;48.670;9.000;2023-05-19T14:29:24;95816.38;;;14.19
30001;BMP280;16845;48.670;9.000;2023-05-19T14:31:53;95814.75;;;14.18
30001;BMP280;16845;48.670;9.000;2023-05-19T14:34:21;95813.88;;;14.19
30001;BMP280;16845;48.670;9.000;2023-05-19T14:36:49;95818.91;;;14.40
30001;BMP280;16845;48.670;9.000;2023-05-19T14:39:16;95815.19;;;14.70
30001;BMP280;16845;48.670;9.000;2023-05-19T14:41:43;95813.56;;;14.48
30001;BMP280;16845;48.670;9.000;2023-05-19T14:44:09;95814.31;;;14.71
30001;BMP280;16845;48.670;9.000;2023-05-19T14:46:36;95815.56;;;15.21
30001;BMP280;16845;48.670;9.000;2023-05-19T14:49:04;95818.16;;;15.20
30001;BMP280;16845;48.670;9.000;2023-05-19T14:51:31;95818.19;;;15.00
30001;BMP280;16845;48.670;9.000;2023-05-19T14:53:57;95809.63;;;15.22
30001;BMP280;16845;48.670;9.000;2023-05-19T14:56:24;95811.34;;;14.82
30001;BMP280;16845;48.670;9.000;2023-05-19T14:58:50;95810.88;;;14.92
30001;BMP280;16845;48.670;9.000;2023-05-19T15:01:17;95814.19;;;14.94
30001;BMP280;16845;48.670;9.000;2023-05-19T15:03:43;95811.72;;;14.93
30001;BMP280;16845;48.670;9.000;2023-05-19T15:06:11;95807.28;;;14.98
30001;BMP280;16845;48.670;9.000;2023-05-19T15:08:38;95810.81;;;14.74
30001;BMP280;16845;48.670;9.000;2023-05-19T15:11:04;95799.09;;;14.73
30001;BMP280;16845;48.670;9.000;2023-05-19T15:13:31;95798.81;;;14.59
30001;BMP280;16845;48.670;9.000;2023-05-19T15:15:57;95794.94;;;14.92
30001;BMP280;16845;48.670;9.000;2023-05-19T15:18:41;95797.97;;;14.80
30001;BMP280;16845;48.670;9.000;2023-05-19T15:21:08;95807.00;;;14.44
30001;BMP280;16845;48.670;9.000;2023-05-19T15:23:36;95802.78;;;14.23
30001;BMP280;16845;48.670;9.000;2023-05-19T15:26:03;95799.69;;;14.15
30001;BMP280;16845;48.670;9.000;2023-05-19T15:28:30;95800.16;;;14.03
30001;BMP280;16845;48.670;9.000;2023-05-19T15:30:56;95795.53;;;14.14
30001;BMP280;16845;48.670;9.000;2023-05-19T15:33:23;95790.22;;;14.21
30001;BMP280;16845;48.670;9.000;2023-05-19T15:35:49;95788.22;;;14.29
30001;BMP280;16845;48.670;9.000;2023-05-19T15:38:16;95798.91;;;14.36
30001;BMP280;16845;48.670;9.000;2023-05-19T15:40:44;95791.69;;;14.27
30001;BMP280;16845;48.670;9.000;2023-05-19T15:43:11;95793.50;;;14.23
30001;BMP280;16845;48.670;9.000;2023-05-19T15:45:37;95789.59;;;14.15
30001;BMP280;16845;48.670;9.000;2023-05-19T15:48:04;95787.81;;;14.40
30001;BMP280;16845;48.670;9.000;2023-05-19T15:50:31;95784.16;;;14.47
30001;BMP280;16845;48.670;9.000;2023-05-19T15:52:58;95786.78;;;14.24
30001;BMP280;16845;48.670;9.000;2023-05-19T15:55:24;95786.13;;;14.40
30001;BMP280;16845;48.670;9.000;2023-05-19T15:57:52;95791.34;;;14.36
30001;BMP280;16845;48.670;9.000;2023-05-19T16:00:19;95785.66;;;14.31
30001;BMP280;16845;48.670;9.000;2023-05-19T16:02:46;95779.78;;;14.30
30001;BMP280;16845;48.670;9.000;2023-05-19T16:05:13;95775.97;;;14.42
30001;BMP280;16845;48.670;9.000;2023-05-19T16:07:39;95772.47;;;14.66
30001;BMP280;16845;48.670;9.000;2023-05-19T16:10:07;95767.00;;;14.75
30001;BMP280;16845;48.670;9.000;2023-05-19T16:12:33;95767.38;;;14.46
30001;BMP280;16845;48.670;9.000;2023-05-19T16:15:01;95770.28;;;14.57
30001;BMP280;16845;48.670;9.000;2023-05-19T16:17:28;95767.91;;;14.54
30001;BMP280;16845;48.670;9.000;2023-05-19T16:19:54;95762.06;;;14.52
30001;BMP280;16845;48.670;9.000;2023-05-19T16:22:21;95760.81;;;14.62
30001;BMP280;16845;48.670;9.000;2023-05-19T16:24:48;95753.88;;;14.87
30001;BMP280;16845;48.670;9.000;2023-05-19T16:27:15;95757.75;;;14.75
30001;BMP280;16845;48.670;9.000;2023-05-19T16:29:41;95753.00;;;14.88
30001;BMP280;16845;48.670;9.000;2023-05-19T16:32:09;95751.75;;;14.78
30001;BMP280;16845;48.670;9.000;2023-05-19T16:34:36;95759.94;;;14.63
30001;BMP280;16845;48.670;9.000;2023-05-19T16:37:03;95752.94;;;14.69
30001;BMP280;16845;48.670;9.000;2023-05-19T16:39:29;95757.81;;;14.54
30001;BMP280;16845;48.670;9.000;2023-05-19T16:41:56;95749.72;;;14.66
30001;BMP280;16845;48.670;9.000;2023-05-19T16:44:22;95748.38;;;14.77
30001;BMP280;16845;48.670;9.000;2023-05-19T16:46:49;95743.66;;;14.50
30001;BMP280;16845;48.670;9.000;2023-05-19T16:49:17;95747.69;;;14.74
30001;BMP280;16845;48.670;9.000;2023-05-19T16:51:43;95741.75;;;14.75
30001;BMP280;16845;48.670;9.000;2023-05-19T16:54:12;95745.22;;;14.92
30001;BMP280;16845;48.670;9.000;2023-05-19T16:56:38;95748.06;;;14.85
30001;BMP280;16845;48.670;9.000;2023-05-19T16:59:05;95754.66;;;14.89
30001;BMP280;16845;48.670;9.000;2023-05-19T17:01:31;95753.38;;;14.79
30001;BMP280;16845;48.670;9.000;2023-05-19T17:03:58;95748.19;;;14.82
30001;BMP280;16845;48.670;9.000;2023-05-19T17:06:26;95749.31;;;14.95
30001;BMP280;16845;48.670;9.000;2023-05-19T17:08:52;95750.97;;;14.96
30001;BMP280;16845;48.670;9.000;2023-05-19T17:11:19;95752.56;;;14.78
30001;BMP280;16845;48.670;9.000;2023-05-19T17:13:45;95744.56;;;14.89
30001;BMP280;16845;48.670;9.000;2023-05-19T17:16:12;95737.97;;;14.45
30001;BMP280;16845;48.670;9.000;2023-05-19T17:18:39;95745.38;;;14.49
30001;BMP280;16845;48.670;9.000;2023-05-19T17:21:05;95743.03;;;14.45
30001;BMP280;16845;48.670;9.000;2023-05-19T17:23:33;95736.72;;;14.55
30001;BMP280;16845;48.670;9.000;2023-05-19T17:26:00;95742.44;;;14.58
30001;BMP280;16845;48.670;9.000;2023-05-19T17:28:26;95737.22;;;14.63
30001;BMP280;16845;48.670;9.000;2023-05-19T17:30:53;95744.91;;;14.60
30001;BMP280;16845;48.670;9.000;2023-05-19T17:33:19;95740.75;;;14.59
30001;BMP280;16845;48.670;9.000;2023-05-19T17:35:46;95743.25;;;14.39
30001;BMP280;16845;48.670;9.000;2023-05-19T17:38:12;95738.38;;;14.34
30001;BMP280;16845;48.670;9.000;2023-05-19T17:40:40;95734.53;;;14.26
30001;BMP280;16845;48.670;9.000;2023-05-19T17:43:07;95733.78;;;14.24
30001;BMP280;16845;48.670;9.000;2023-05-19T17:45:34;95731.25;;;14.24
30001;BMP280;16845;48.670;9.000;2023-05-19T17:48:00;95740.91;;;14.13
30001;BMP280;16845;48.670;9.000;2023-05-19T17:50:27;95739.50;;;14.06
30001;BMP280;16845;48.670;9.000;2023-05-19T17:52:54;95738.03;;;14.01
30001;BMP280;16845;48.670;9.000;2023-05-19T17:55:21;95737.63;;;14.11